Time;durP1;ratioP1;P1;durP2;ratioP2;P2;SDS_P1;SDS_P2;PMS_P1;PMS_P2;Temp;Humidity;BMP_temperature;BMP_pressure;BME280_temperature;BME280_humidity;BME280_pressure;Samples;Min_cycle;Max_cycle;Signal;HPM_P1;HPM_P2
2022/03/09 00:01:56;;;;;;;12.75;10.32;;;;;;;1.15;54.65;99290.44;5016444;27;103301;-70
2022/03/09 00:04:26;;;;;;;11.75;10.48;;;;;;;0.28;56.92;99298.59;5012427;28;102788;-70
2022/03/09 00:06:54;;;;;;;11.45;10.25;;;;;;;0.97;55.79;99288.31;5012451;28;102662;-70
2022/03/09 00:09:25;;;;;;;9.87;8.87;;;;;;;1.45;54.27;99282.75;5009175;28;104074;-65
2022/03/09 00:11:53;;;;;;;10.63;9.63;;;;;;;1.51;54.27;99286.06;5015413;28;103267;-65
2022/03/09 00:14:23;;;;;;;10.95;9.85;;;;;;;1.66;54.04;99293.44;5014151;28;102883;-70
2022/03/09 00:16:51;;;;;;;10.95;9.85;;;;;;;1.72;53.63;99288.06;5017658;28;103154;-70
2022/03/09 00:19:19;;;;;;;12.02;10.68;;;;;;;1.59;53.24;99291.91;5014133;27;102666;-70
2022/03/09 00:21:48;;;;;;;12.35;11.05;;;;;;;1.35;53.80;99289.13;5011012;28;102808;-70
2022/03/09 00:24:18;;;;;;;13.90;11.23;;;;;;;0.89;55.53;99290.25;5014346;28;102644;-70
2022/03/09 00:26:46;;;;;;;11.77;10.55;;;;;;;0.97;55.34;99297.88;5012397;28;103872;-70
2022/03/09 00:29:14;;;;;;;12.65;10.77;;;;;;;0.87;55.42;99299.00;5004503;28;104170;-70
2022/03/09 00:31:44;;;;;;;11.23;10.07;;;;;;;1.21;54.97;99299.84;5010983;28;103168;-70
2022/03/09 00:34:12;;;;;;;10.67;9.57;;;;;;;1.39;53.79;99299.41;5008547;28;102623;-71
2022/03/09 00:36:40;;;;;;;13.15;11.50;;;;;;;0.24;57.83;99307.34;5008131;28;102663;-65
2022/03/09 00:39:08;;;;;;;12.93;11.47;;;;;;;0.52;56.50;99313.66;5010716;27;103997;-71
2022/03/09 00:41:36;;;;;;;13.18;11.73;;;;;;;-0.21;57.83;99301.34;5005758;28;103672;-70
2022/03/09 00:44:05;;;;;;;15.02;12.27;;;;;;;-0.50;59.01;99315.75;5014855;28;103241;-65
2022/03/09 00:46:35;;;;;;;15.60;13.07;;;;;;;0.04;58.37;99309.50;5007909;28;104143;-70
2022/03/09 00:49:05;;;;;;;12.27;10.98;;;;;;;0.80;56.40;99307.81;5013494;28;103654;-65
2022/03/09 00:51:37;;;;;;;12.75;11.35;;;;;;;1.13;55.26;99302.66;5013030;28;103183;-65
2022/03/09 00:54:05;;;;;;;14.50;12.60;;;;;;;-0.01;57.42;99304.41;5014690;27;102613;-65
2022/03/09 00:56:34;;;;;;;13.63;12.18;;;;;;;-0.55;60.05;99309.81;5011947;28;103135;-65
2022/03/09 00:59:02;;;;;;;16.75;12.82;;;;;;;0.05;58.80;99298.25;5012719;28;103387;-65
2022/03/09 01:01:30;;;;;;;10.20;9.20;;;;;;;0.83;56.74;99289.53;5012937;27;103040;-69
2022/03/09 01:03:58;;;;;;;13.23;11.77;;;;;;;0.91;55.69;99295.41;5019045;28;102735;-70
2022/03/09 01:06:28;;;;;;;10.65;9.57;;;;;;;0.74;57.24;99298.41;5010043;28;103919;-65
2022/03/09 01:08:57;;;;;;;15.70;12.20;;;;;;;0.17;57.61;99305.75;5011553;27;103963;-71
2022/03/09 01:11:25;;;;;;;15.70;12.00;;;;;;;0.49;57.31;99300.72;5011262;28;103194;-70
2022/03/09 01:13:53;;;;;;;12.07;10.85;;;;;;;0.61;57.58;99303.94;5018106;28;102910;-70
2022/03/09 01:16:21;;;;;;;13.30;11.65;;;;;;;0.68;56.69;99303.75;5017065;28;102880;-70
2022/03/09 01:18:50;;;;;;;15.63;12.70;;;;;;;0.35;57.30;99300.19;5012988;28;103379;-70
2022/03/09 01:21:18;;;;;;;14.65;12.73;;;;;;;-0.06;58.76;99297.59;5017126;27;103226;-70
2022/03/09 01:23:47;;;;;;;12.43;11.20;;;;;;;0.44;58.01;99289.59;5015960;28;102534;-70
2022/03/09 01:26:15;;;;;;;12.40;11.10;;;;;;;0.71;56.65;99287.22;5014622;28;103836;-71
2022/03/09 01:28:43;;;;;;;12.18;10.35;;;;;;;0.89;56.71;99284.19;5013318;28;103252;-70
2022/03/09 01:31:11;;;;;;;14.23;12.15;;;;;;;0.79;56.26;99285.28;5013787;28;104231;-70
2022/03/09 01:33:40;;;;;;;15.70;12.68;;;;;;;-0.24;59.66;99293.63;5017331;28;102876;-70
2022/03/09 01:36:08;;;;;;;13.27;11.88;;;;;;;0.07;59.19;99291.25;5015519;27;102838;-65
2022/03/09 01:38:37;;;;;;;10.30;9.25;;;;;;;0.72;57.40;99278.53;5015581;28;103303;-65
2022/03/09 01:41:06;;;;;;;12.55;10.82;;;;;;;0.92;56.43;99286.72;5013664;28;103187;-64
2022/03/09 01:43:35;;;;;;;13.43;11.88;;;;;;;0.44;57.43;99292.19;5017385;27;102967;-64
2022/03/09 01:46:03;;;;;;;14.18;11.52;;;;;;;0.36;57.98;99296.69;5013743;28;102984;-65
2022/03/09 01:48:35;;;;;;;13.30;11.60;;;;;;;-0.35;60.14;99297.31;5015157;27;103222;-64
2022/03/09 01:51:03;;;;;;;13.48;11.80;;;;;;;0.17;58.56;99295.38;5018085;28;103305;-64
2022/03/09 01:53:31;;;;;;;10.57;9.53;;;;;;;0.67;56.99;99296.88;5013223;28;102825;-70
2022/03/09 01:55:59;;;;;;;10.18;9.18;;;;;;;0.93;56.11;99291.00;5015814;28;102717;-70
2022/03/09 01:58:30;;;;;;;12.30;11.00;;;;;;;0.98;55.69;99289.19;5016019;28;103335;-64
2022/03/09 02:00:58;;;;;;;13.82;12.43;;;;;;;-0.26;58.57;99286.75;5010630;28;104289;-64
2022/03/09 02:03:26;;;;;;;13.88;12.38;;;;;;;-0.51;61.10;99282.91;5008936;28;102981;-64
2022/03/09 02:05:54;;;;;;;15.07;12.70;;;;;;;-0.50;60.88;99282.00;5014593;28;103989;-64
2022/03/09 02:11:08;;;;;;;13.02;11.32;;;;;;;0.12;59.30;99275.56;5014293;28;104177;-64
2022/03/09 02:13:39;;;;;;;11.45;10.35;;;;;;;0.37;58.50;99276.75;5014350;27;102754;-64
2022/03/09 02:16:08;;;;;;;11.40;10.20;;;;;;;0.58;57.57;99266.72;5016431;27;103959;-70
2022/03/09 02:18:37;;;;;;;10.52;9.45;;;;;;;0.71;57.19;99266.41;5008452;28;103226;-69
2022/03/09 02:21:05;;;;;;;13.80;11.27;;;;;;;0.61;56.87;99264.94;5008007;28;104311;-70
2022/03/09 02:23:35;;;;;;;12.85;11.52;;;;;;;0.62;57.10;99266.66;5013773;27;102911;-70
2022/03/09 02:26:04;;;;;;;13.43;11.75;;;;;;;0.22;58.25;99267.56;5014529;27;102697;-64
2022/03/09 02:28:38;;;;;;;12.07;10.88;;;;;;;0.46;57.66;99271.34;5016046;28;104208;-64
2022/03/09 02:31:07;;;;;;;9.70;8.80;;;;;;;0.66;57.76;99268.28;5015378;28;103305;-64
2022/03/09 02:33:35;;;;;;;11.60;10.13;;;;;;;0.62;57.35;99261.47;5008007;28;102841;-69
2022/03/09 02:36:04;;;;;;;9.70;8.70;;;;;;;0.80;56.96;99269.66;5007272;28;102748;-69
2022/03/09 02:38:34;;;;;;;10.60;9.52;;;;;;;0.88;56.43;99266.88;5012512;28;104352;-69
2022/03/09 02:41:02;;;;;;;9.75;8.82;;;;;;;0.90;56.10;99257.28;5013821;27;103218;-69
2022/03/09 02:43:30;;;;;;;10.63;9.52;;;;;;;0.83;56.43;99260.94;5019269;27;102682;-70
2022/03/09 02:45:59;;;;;;;11.80;10.60;;;;;;;0.67;56.63;99257.00;5015079;27;103549;-70
2022/03/09 02:48:28;;;;;;;14.07;12.20;;;;;;;-0.38;60.33;99264.47;5022626;27;103565;-70
2022/03/09 02:50:56;;;;;;;13.48;12.02;;;;;;;-0.91;62.38;99257.69;5010139;28;103148;-70
2022/03/09 02:53:24;;;;;;;14.68;11.80;;;;;;;-1.61;65.20;99267.50;5004969;28;102797;-69
2022/03/09 02:55:54;;;;;;;11.60;10.40;;;;;;;-0.66;62.38;99271.94;5016024;28;103938;-69
2022/03/09 02:58:22;;;;;;;11.63;10.32;;;;;;;-0.30;61.65;99261.72;5008537;27;104039;-69
2022/03/09 03:00:50;;;;;;;10.35;9.27;;;;;;;0.07;60.04;99259.22;5009604;28;103279;-69
2022/03/09 03:03:19;;;;;;;13.77;11.45;;;;;;;-0.70;61.41;99259.88;5007108;28;102732;-70
2022/03/09 03:05:47;;;;;;;12.43;11.10;;;;;;;-0.67;61.77;99261.56;5012958;28;103985;-69
2022/03/09 03:08:15;;;;;;;11.10;10.00;;;;;;;-0.12;60.71;99266.56;5014152;28;103881;-70
2022/03/09 03:10:45;;;;;;;9.75;8.80;;;;;;;0.18;58.96;99265.03;5009731;27;103163;-69
2022/03/09 03:13:14;;;;;;;14.88;10.88;;;;;;;0.04;58.25;99269.69;5009065;28;102768;-69
2022/03/09 03:15:43;;;;;;;13.05;11.65;;;;;;;-1.66;64.64;99283.13;5014215;27;102760;-69
2022/03/09 03:18:11;;;;;;;11.88;10.77;;;;;;;-1.12;64.60;99275.38;5010120;28;103660;-69
2022/03/09 03:20:39;;;;;;;11.95;10.45;;;;;;;-0.61;61.21;99279.63;5013278;28;103229;-65
2022/03/09 03:23:07;;;;;;;10.40;9.40;;;;;;;-0.63;62.17;99277.06;5012455;28;102888;-64
2022/03/09 03:25:35;;;;;;;11.18;9.88;;;;;;;-0.13;60.21;99273.50;5013006;28;103000;-64
2022/03/09 03:28:03;;;;;;;13.03;10.93;;;;;;;-0.48;60.64;99275.94;5009522;28;103853;-69
2022/03/09 03:30:33;;;;;;;11.98;10.77;;;;;;;-1.07;62.30;99284.78;5006723;28;104179;-69
2022/03/09 03:33:01;;;;;;;12.98;11.30;;;;;;;-1.50;65.19;99291.50;5012752;27;102962;-64
2022/03/09 03:35:29;;;;;;;11.97;10.77;;;;;;;-1.13;64.62;99287.47;5007702;28;102892;-64
2022/03/09 03:37:57;;;;;;;12.90;11.02;;;;;;;-1.80;67.06;99293.63;5016654;28;103687;-64
2022/03/09 03:40:25;;;;;;;11.80;10.57;;;;;;;-1.13;65.47;99289.22;5010672;28;103181;-69
2022/03/09 03:42:53;;;;;;;10.00;9.00;;;;;;;-0.63;63.86;99294.38;5013240;28;103083;-64
2022/03/09 03:45:21;;;;;;;10.88;9.73;;;;;;;-0.53;61.37;99284.69;5015338;28;104034;-69
2022/03/09 03:47:51;;;;;;;10.75;9.65;;;;;;;-0.80;64.32;99294.69;5016530;28;103873;-64
2022/03/09 03:50:19;;;;;;;11.93;10.70;;;;;;;-0.89;62.73;99292.25;5015451;28;103711;-69
2022/03/09 03:52:47;;;;;;;12.48;11.20;;;;;;;-1.21;64.94;99299.72;5016477;27;102822;-70
2022/03/09 03:55:15;;;;;;;9.90;8.90;;;;;;;-0.59;63.60;99296.06;5001276;27;102748;-69
2022/03/09 03:57:44;;;;;;;11.77;10.45;;;;;;;-0.51;61.06;99299.34;5018975;27;104348;-70
2022/03/09 04:00:15;;;;;;;11.27;10.07;;;;;;;-0.66;63.28;99302.22;5009057;27;102768;-64
2022/03/09 04:02:45;;;;;;;9.70;8.70;;;;;;;-0.29;61.77;99311.03;5018886;28;104185;-65
2022/03/09 04:05:17;;;;;;;9.45;8.55;;;;;;;-0.12;60.59;99314.16;5015305;27;104081;-69
2022/03/09 04:07:46;;;;;;;11.40;10.20;;;;;;;-0.15;60.35;99318.56;5012182;28;103208;-69
2022/03/09 04:10:15;;;;;;;10.87;9.77;;;;;;;-0.29;60.72;99310.19;5005787;28;104218;-69
2022/03/09 04:12:43;;;;;;;12.73;10.73;;;;;;;-0.41;60.46;99311.28;5013081;28;102736;-65
2022/03/09 04:15:11;;;;;;;13.23;11.13;;;;;;;-1.21;63.20;99320.44;5010573;27;102780;-64
2022/03/09 04:17:43;;;;;;;12.43;10.97;;;;;;;-1.30;65.29;99325.78;5015562;28;104255;-64
2022/03/09 04:20:12;;;;;;;13.10;11.50;;;;;;;-1.02;63.90;99331.38;5014754;27;103223;-64
2022/03/09 04:22:42;;;;;;;11.32;9.85;;;;;;;-0.71;62.46;99324.81;5004829;28;102800;-64
2022/03/09 04:25:11;;;;;;;13.35;11.70;;;;;;;-1.73;65.84;99328.09;5006466;28;102954;-68
2022/03/09 04:27:39;;;;;;;11.55;10.35;;;;;;;-1.36;65.18;99318.09;5016382;27;103997;-69
2022/03/09 04:30:09;;;;;;;11.30;10.13;;;;;;;-0.93;63.72;99316.53;5010793;28;103236;-69
2022/03/09 04:32:38;;;;;;;12.27;10.98;;;;;;;-1.90;66.20;99307.59;5013611;28;103342;-64
2022/03/09 04:35:09;;;;;;;14.18;11.40;;;;;;;-1.88;67.15;99303.25;5012872;27;102943;-64
2022/03/09 04:37:37;;;;;;;11.50;10.30;;;;;;;-1.29;65.42;99301.56;5007586;27;104031;-69
2022/03/09 04:40:08;;;;;;;11.67;10.20;;;;;;;-0.82;63.70;99299.06;5013907;27;103166;-69
2022/03/09 04:42:36;;;;;;;12.90;11.18;;;;;;;-1.22;64.93;99292.81;5004424;28;102882;-69
2022/03/09 04:45:05;;;;;;;11.85;10.52;;;;;;;-0.90;64.00;99300.91;5011081;27;103658;-69
2022/03/09 04:47:34;;;;;;;12.23;10.48;;;;;;;-0.66;62.87;99289.25;5015603;28;104079;-69
2022/03/09 04:50:02;;;;;;;10.73;9.67;;;;;;;-0.54;62.14;99289.03;5008992;27;103191;-69
2022/03/09 04:52:30;;;;;;;9.77;8.80;;;;;;;-0.41;61.38;99294.81;5013393;28;103040;-69
2022/03/09 04:54:58;;;;;;;11.77;9.98;;;;;;;-0.50;61.69;99292.41;5013022;28;102833;-69
2022/03/09 04:57:27;;;;;;;12.47;10.40;;;;;;;-0.91;63.70;99296.59;5012475;28;103007;-69
2022/03/09 04:59:56;;;;;;;13.27;11.32;;;;;;;-0.88;64.21;99293.97;5007796;27;103176;-69
2022/03/09 05:02:24;;;;;;;12.48;11.20;;;;;;;-1.29;65.71;99301.56;5012719;28;102845;-69
2022/03/09 05:04:52;;;;;;;12.63;11.30;;;;;;;-1.51;65.99;99301.00;5016422;28;103654;-69
2022/03/09 05:07:20;;;;;;;10.05;9.05;;;;;;;-0.93;65.10;99300.97;5011139;28;103909;-69
2022/03/09 05:09:48;;;;;;;11.30;10.10;;;;;;;-0.72;63.75;99307.50;5001102;28;104060;-68
2022/03/09 05:12:16;;;;;;;11.07;9.95;;;;;;;-0.88;63.90;99303.47;5011366;28;102947;-68
2022/03/09 05:14:46;;;;;;;11.32;9.70;;;;;;;-1.09;64.98;99302.09;5008217;28;102797;-68
2022/03/09 05:17:14;;;;;;;12.30;10.82;;;;;;;-1.65;65.09;99312.44;5016813;28;103590;-69
2022/03/09 05:19:42;;;;;;;13.45;11.20;;;;;;;-1.72;66.51;99318.59;5008199;27;103189;-64
2022/03/09 05:22:10;;;;;;;11.63;10.43;;;;;;;-1.86;68.35;99322.25;5009801;28;102974;-64
2022/03/09 05:24:46;;;;;;;12.55;11.25;;;;;;;-1.61;67.21;99322.78;5008872;28;103571;-68
2022/03/09 05:27:15;;;;;;;13.57;11.93;;;;;;;-2.32;69.82;99323.66;5007100;27;103729;-69
2022/03/09 05:29:43;;;;;;;12.68;10.82;;;;;;;-2.29;69.93;99326.22;5010184;28;104168;-68
2022/03/09 05:32:12;;;;;;;13.70;12.30;;;;;;;-2.60;70.97;99323.09;5014252;27;102753;-69
2022/03/09 05:34:40;;;;;;;17.27;12.85;;;;;;;-2.50;70.98;99326.47;5012473;27;103835;-68
2022/03/09 05:37:08;;;;;;;13.65;12.18;;;;;;;-2.25;70.99;99327.91;5003927;28;104291;-68
2022/03/09 05:39:37;;;;;;;15.07;12.95;;;;;;;-2.05;70.33;99338.88;5005412;28;103399;-69
2022/03/09 05:42:06;;;;;;;15.98;13.48;;;;;;;-2.25;71.65;99340.00;5014692;28;102934;-68
2022/03/09 05:44:34;;;;;;;15.15;12.93;;;;;;;-2.51;72.11;99358.38;5010668;28;103770;-64
2022/03/09 05:47:03;;;;;;;15.95;13.48;;;;;;;-2.32;71.49;99354.72;5013562;27;103904;-64
2022/03/09 05:49:32;;;;;;;17.65;13.77;;;;;;;-2.38;72.29;99362.53;5013218;27;103349;-64
2022/03/09 05:52:00;;;;;;;17.92;14.48;;;;;;;-2.49;72.47;99361.78;5013165;27;102731;-69
2022/03/09 05:54:28;;;;;;;15.20;13.15;;;;;;;-2.11;71.94;99354.50;5008514;28;102553;-69
2022/03/09 05:56:56;;;;;;;15.45;12.90;;;;;;;-2.10;71.00;99357.91;5009044;27;104180;-64
2022/03/09 05:59:24;;;;;;;16.63;13.83;;;;;;;-2.13;71.84;99363.16;5013375;28;103260;-64
2022/03/09 06:01:53;;;;;;;16.40;13.43;;;;;;;-1.95;70.96;99350.84;5012307;27;102907;-69
2022/03/09 06:04:21;;;;;;;15.02;12.32;;;;;;;-1.63;70.13;99353.03;5012192;28;103270;-64
2022/03/09 06:06:50;;;;;;;12.27;10.97;;;;;;;-1.35;68.74;99353.50;5018033;27;102939;-64
2022/03/09 06:09:19;;;;;;;14.33;12.83;;;;;;;-1.54;69.03;99352.88;5015259;28;103210;-69
2022/03/09 06:11:49;;;;;;;19.47;14.00;;;;;;;-2.20;71.28;99359.78;5011523;28;102982;-69
2022/03/09 06:14:17;;;;;;;15.50;13.27;;;;;;;-2.40;72.33;99361.69;5014179;28;102978;-64
2022/03/09 06:16:47;;;;;;;14.65;12.93;;;;;;;-2.26;72.13;99364.16;5010376;27;103933;-68
2022/03/09 06:19:18;;;;;;;17.88;13.35;;;;;;;-1.94;71.62;99377.59;5004929;28;103238;-69
2022/03/09 06:21:46;;;;;;;15.88;13.05;;;;;;;-1.92;72.34;99379.28;5000315;28;103467;-69
2022/03/09 06:24:18;;;;;;;16.30;13.80;;;;;;;-1.75;70.65;99379.09;5004708;28;104028;-69
2022/03/09 06:26:48;;;;;;;15.27;12.23;;;;;;;-1.07;67.74;99379.88;5006240;28;103261;-69
2022/03/09 06:29:17;;;;;;;13.50;12.10;;;;;;;-0.83;67.49;99374.31;5007417;28;103257;-69
2022/03/09 06:31:45;;;;;;;15.23;12.35;;;;;;;-0.67;66.27;99386.13;5008845;28;102671;-69
2022/03/09 06:34:13;;;;;;;16.23;13.27;;;;;;;-0.84;66.88;99383.81;5005569;28;103826;-69
2022/03/09 06:36:44;;;;;;;15.88;13.25;;;;;;;-0.84;67.63;99389.00;4991931;28;103932;-69
2022/03/09 06:39:13;;;;;;;18.33;14.23;;;;;;;-0.96;68.47;99378.84;5001568;28;103264;-69
2022/03/09 06:41:44;;;;;;;14.37;12.80;;;;;;;-0.66;66.45;99380.94;4999675;28;102852;-70
2022/03/09 06:44:14;;;;;;;15.90;12.10;;;;;;;-0.23;65.88;99382.78;5002738;28;103610;-69
2022/03/09 06:46:43;;;;;;;16.80;12.88;;;;;;;-0.03;63.95;99385.88;5005226;28;103588;-68
2022/03/09 06:49:10;;;;;;;16.33;14.43;;;;;;;-0.63;66.33;99390.41;5002778;28;103485;-68
2022/03/09 06:51:39;;;;;;;18.42;14.10;;;;;;;-0.66;67.55;99393.91;5009137;27;102880;-69
2022/03/09 06:54:06;;;;;;;18.35;14.30;;;;;;;-0.13;65.33;99395.56;4999866;28;102975;-68
2022/03/09 06:56:34;;;;;;;18.77;14.68;;;;;;;0.03;63.92;99400.50;5002908;28;103673;-69
2022/03/09 06:59:04;;;;;;;18.80;13.13;;;;;;;0.10;64.03;99396.88;5010776;28;104260;-69
2022/03/09 07:01:32;;;;;;;17.50;13.68;;;;;;;0.16;64.20;99395.03;5014497;27;102745;-64
2022/03/09 07:04:00;;;;;;;15.55;13.10;;;;;;;0.48;62.99;99405.59;5013704;28;102866;-64
2022/03/09 07:06:28;;;;;;;18.58;14.30;;;;;;;0.19;63.80;99407.97;5009382;28;104139;-64
2022/03/09 07:08:56;;;;;;;14.65;12.40;;;;;;;0.74;62.11;99412.00;5014644;27;102975;-64
2022/03/09 07:11:24;;;;;;;14.85;12.60;;;;;;;1.07;60.94;99416.44;5010547;28;102896;-69
2022/03/09 07:13:52;;;;;;;18.10;14.00;;;;;;;1.13;60.05;99417.19;5013198;28;103099;-69
2022/03/09 07:16:21;;;;;;;17.70;13.43;;;;;;;1.22;59.89;99410.91;5006579;28;103285;-70
2022/03/09 07:18:50;;;;;;;13.98;12.48;;;;;;;1.50;59.82;99417.16;5008083;28;103269;-69
2022/03/09 07:21:18;;;;;;;16.08;13.95;;;;;;;1.45;58.91;99413.81;5014025;28;102587;-69
2022/03/09 07:23:46;;;;;;;15.00;13.43;;;;;;;1.99;57.73;99415.91;5015567;27;102660;-70
2022/03/09 07:26:14;;;;;;;16.13;13.70;;;;;;;2.41;56.84;99419.97;5010448;28;104224;-69
2022/03/09 07:28:42;;;;;;;17.70;13.90;;;;;;;2.64;56.03;99417.53;5015108;28;103099;-64
2022/03/09 07:31:10;;;;;;;18.10;14.25;;;;;;;2.42;56.08;99415.56;5015805;27;102951;-65
2022/03/09 07:33:39;;;;;;;15.27;13.50;;;;;;;2.87;55.27;99417.72;5013792;27;103592;-70
2022/03/09 07:36:08;;;;;;;15.38;13.45;;;;;;;2.70;55.74;99409.53;5009263;28;103567;-71
2022/03/09 07:38:43;;;;;;;18.08;13.98;;;;;;;3.10;55.80;99414.41;5015411;28;103160;-70
2022/03/09 07:41:31;;;;;;;13.57;12.20;;;;;;;3.53;54.49;99413.91;5011594;28;102644;-71
2022/03/09 07:44:01;;;;;;;14.27;12.77;;;;;;;3.85;53.94;99424.13;5015345;28;102863;-65
2022/03/09 07:46:29;;;;;;;16.50;13.75;;;;;;;3.76;52.43;99427.03;5011880;28;104230;-65
2022/03/09 07:48:59;;;;;;;14.05;12.55;;;;;;;4.49;52.13;99429.72;5014983;27;103162;-65
2022/03/09 07:51:27;;;;;;;16.83;13.57;;;;;;;4.33;49.93;99425.94;5015516;27;103075;-65
2022/03/09 07:53:55;;;;;;;13.77;12.18;;;;;;;4.60;50.25;99435.44;5003772;28;102814;-65
2022/03/09 07:56:23;;;;;;;14.68;13.15;;;;;;;5.22;49.94;99439.13;5014315;28;104337;-65
2022/03/09 07:58:51;;;;;;;13.45;12.15;;;;;;;5.43;48.83;99426.09;5010307;28;103413;-65
2022/03/09 08:01:21;;;;;;;14.70;13.05;;;;;;;5.12;48.45;99429.91;5014157;27;102847;-66
2022/03/09 08:03:50;;;;;;;13.95;12.48;;;;;;;5.72;47.71;99436.25;5010860;28;102644;-66
2022/03/09 08:06:19;;;;;;;14.20;12.73;;;;;;;6.06;47.37;99423.47;5015449;28;104166;-67
2022/03/09 08:08:47;;;;;;;16.17;14.52;;;;;;;6.49;46.01;99425.06;5016044;27;102992;-66
2022/03/09 08:11:15;;;;;;;13.32;12.02;;;;;;;6.78;45.63;99415.88;5012852;27;103162;-70
2022/03/09 08:13:43;;;;;;;14.03;12.73;;;;;;;6.47;45.41;99418.19;5008379;28;103714;-75
2022/03/09 08:16:11;;;;;;;18.02;14.15;;;;;;;6.66;45.80;99416.44;5008136;28;104221;-74
2022/03/09 08:18:39;;;;;;;16.15;14.45;;;;;;;6.33;45.54;99414.41;5011928;28;104412;-74
2022/03/09 08:21:07;;;;;;;16.87;13.20;;;;;;;7.13;44.74;99406.38;5008841;27;102614;-74
2022/03/09 08:23:37;;;;;;;16.92;13.75;;;;;;;7.70;43.28;99418.47;5011412;28;103007;-74
2022/03/09 08:26:05;;;;;;;16.45;13.02;;;;;;;7.79;42.63;99412.75;5014063;28;104057;-74
2022/03/09 08:28:33;;;;;;;14.38;12.95;;;;;;;7.69;42.77;99414.97;5012052;28;103076;-74
2022/03/09 08:31:03;;;;;;;15.37;13.60;;;;;;;8.20;42.36;99406.25;5011332;28;102776;-75
2022/03/09 08:33:34;;;;;;;15.73;13.27;;;;;;;8.10;42.13;99413.78;5014661;27;102830;-75
2022/03/09 08:36:02;;;;;;;15.02;12.80;;;;;;;8.38;41.31;99421.13;5015958;27;103031;-75
2022/03/09 08:38:33;;;;;;;16.83;12.98;;;;;;;8.63;41.30;99407.53;5014497;28;103213;-74
2022/03/09 08:41:02;;;;;;;15.27;13.30;;;;;;;8.17;41.28;99409.88;5012323;27;102889;-74
2022/03/09 08:43:33;;;;;;;15.13;12.75;;;;;;;9.01;40.57;99413.38;5010349;28;102592;-72
2022/03/09 08:46:01;;;;;;;16.13;13.20;;;;;;;9.51;39.81;99408.78;5016730;27;103194;-72
2022/03/09 08:48:30;;;;;;;12.77;11.43;;;;;;;9.07;41.45;99402.47;5009943;28;103356;-72
2022/03/09 08:50:58;;;;;;;13.45;11.25;;;;;;;9.08;39.80;99396.28;5012454;27;102631;-72
2022/03/09 08:53:26;;;;;;;13.40;10.13;;;;;;;9.30;39.50;99395.00;5014363;27;102651;-72
2022/03/09 08:55:54;;;;;;;12.77;10.10;;;;;;;9.83;38.80;99389.28;5007240;28;104045;-61
2022/03/09 08:58:23;;;;;;;12.45;10.20;;;;;;;9.75;38.73;99391.53;5006269;28;103227;-62
2022/03/09 09:00:52;;;;;;;11.30;9.45;;;;;;;10.20;38.21;99384.50;5010639;28;103359;-66
2022/03/09 09:03:25;;;;;;;11.35;9.73;;;;;;;10.53;38.02;99379.81;5012151;28;104269;-66
2022/03/09 09:05:54;;;;;;;10.90;9.80;;;;;;;10.90;37.76;99379.22;5004761;28;103853;-66
2022/03/09 09:08:24;;;;;;;12.35;10.60;;;;;;;10.40;37.25;99379.72;5015672;28;103320;-70
2022/03/09 09:10:52;;;;;;;11.63;10.43;;;;;;;11.04;36.71;99376.56;5012343;27;102594;-70
2022/03/09 09:13:20;;;;;;;11.00;9.90;;;;;;;10.97;37.37;99369.13;5012749;27;102598;-65
2022/03/09 09:15:50;;;;;;;11.27;10.13;;;;;;;10.93;36.53;99368.47;5010759;27;103309;-65
2022/03/09 09:18:18;;;;;;;11.38;10.27;;;;;;;10.96;37.00;99370.91;5010123;28;104269;-65
2022/03/09 09:21:06;;;;;;;11.60;10.50;;;;;;;11.27;36.50;99369.81;5003836;28;103005;-69
2022/03/09 09:23:36;;;;;;;13.20;11.02;;;;;;;11.38;36.15;99374.38;4993134;28;103902;-70
2022/03/09 09:26:04;;;;;;;12.13;10.82;;;;;;;11.49;36.57;99361.31;4977290;28;104310;-70
2022/03/09 09:28:52;;;;;;;14.90;10.93;;;;;;;10.90;36.62;99363.38;5002903;28;103232;-69
2022/03/09 09:31:22;;;;;;;11.10;10.07;;;;;;;11.55;35.89;99360.91;5006320;27;102974;-69
2022/03/09 09:33:50;;;;;;;11.77;10.65;;;;;;;12.11;34.53;99360.66;5001040;28;102807;-69
2022/03/09 09:36:18;;;;;;;11.52;10.38;;;;;;;12.37;34.26;99360.66;5002233;28;104219;-69
2022/03/09 09:38:48;;;;;;;13.07;10.65;;;;;;;12.23;34.71;99358.97;5005950;28;103130;-69
2022/03/09 09:41:19;;;;;;;12.75;11.40;;;;;;;12.58;35.27;99353.84;5007698;28;102725;-69
2022/03/09 09:43:51;;;;;;;12.18;10.88;;;;;;;12.14;35.63;99355.13;5004387;28;103984;-65
2022/03/09 09:46:20;;;;;;;12.10;10.60;;;;;;;12.53;34.55;99358.63;5014548;28;103781;-65
2022/03/09 09:48:51;;;;;;;13.02;11.10;;;;;;;12.11;35.54;99360.66;5004054;27;103173;-65
2022/03/09 09:51:23;;;;;;;11.70;10.60;;;;;;;12.42;34.65;99353.22;5014632;27;103029;-65
2022/03/09 09:53:51;;;;;;;11.93;10.27;;;;;;;12.83;34.04;99347.69;5008925;28;103860;-65
2022/03/09 09:56:20;;;;;;;12.88;11.68;;;;;;;12.86;33.68;99353.59;5011556;27;104116;-69
2022/03/09 09:58:49;;;;;;;13.55;11.90;;;;;;;10.06;35.86;99355.41;5006087;28;102973;-69
2022/03/09 10:01:17;;;;;;;12.05;10.95;;;;;;;11.48;35.24;99343.75;5009562;28;102596;-69
2022/03/09 10:03:45;;;;;;;12.27;11.07;;;;;;;11.38;35.81;99348.78;5008549;28;102753;-70
2022/03/09 10:06:14;;;;;;;12.13;10.98;;;;;;;12.13;35.22;99348.13;5017228;28;103803;-69
2022/03/09 10:09:00;;;;;;;15.68;11.90;;;;;;;12.43;34.68;99350.50;5005111;28;102630;-69
2022/03/09 10:11:45;;;;;;;13.82;11.52;;;;;;;12.49;34.28;99355.34;5013792;27;102721;-70
2022/03/09 10:14:13;;;;;;;13.17;11.90;;;;;;;12.45;33.74;99358.31;5008343;28;103443;-71
2022/03/09 10:17:00;;;;;;;14.75;12.02;;;;;;;11.49;34.72;99356.88;5009321;28;103333;-71
2022/03/09 10:19:34;;;;;;;12.52;11.32;;;;;;;11.90;34.34;99359.44;5004163;28;103334;-71
2022/03/09 10:22:22;;;;;;;14.70;11.80;;;;;;;12.32;34.77;99355.69;5009953;28;102904;-70
2022/03/09 10:25:22;;;;;;;13.30;11.25;;;;;;;12.49;34.70;99359.81;5011020;28;103586;-71
2022/03/09 10:27:52;;;;;;;14.25;11.82;;;;;;;12.25;34.43;99361.50;5010041;28;104176;-71
2022/03/09 10:30:22;;;;;;;12.40;11.20;;;;;;;12.95;33.57;99358.25;5014410;27;102595;-71
2022/03/09 10:32:53;;;;;;;12.88;11.65;;;;;;;13.06;33.28;99360.13;5013020;28;103077;-66
2022/03/09 10:35:40;;;;;;;12.57;11.35;;;;;;;12.71;34.08;99365.31;5015777;27;102718;-66
2022/03/09 10:38:23;;;;;;;13.23;11.83;;;;;;;12.41;33.04;99367.41;5013692;28;104162;-67
2022/03/09 10:40:54;;;;;;;14.02;12.45;;;;;;;11.01;34.33;99366.19;5014266;27;103218;-66
2022/03/09 10:43:24;;;;;;;14.20;12.65;;;;;;;10.12;36.22;99368.22;5013621;27;102695;-71
2022/03/09 10:46:07;;;;;;;13.20;11.85;;;;;;;12.23;33.95;99364.25;5003385;28;104061;-70
2022/03/09 10:48:57;;;;;;;13.55;12.25;;;;;;;12.24;32.46;99365.13;5007090;28;103539;-71
2022/03/09 10:51:32;;;;;;;14.05;12.55;;;;;;;10.52;34.57;99370.19;5010987;28;104317;-67
2022/03/09 10:54:04;;;;;;;16.33;12.50;;;;;;;10.50;35.26;99369.41;5010231;27;102693;-71
2022/03/09 10:56:33;;;;;;;13.23;12.02;;;;;;;12.10;33.74;99374.84;5007775;28;103991;-71
2022/03/09 10:59:13;;;;;;;14.15;12.77;;;;;;;12.95;32.24;99368.84;5008950;28;103740;-71
2022/03/09 11:01:42;;;;;;;13.95;12.57;;;;;;;12.92;33.13;99363.78;5015544;28;103187;-67
2022/03/09 11:04:15;;;;;;;13.95;12.65;;;;;;;13.50;30.79;99356.94;5011509;28;102687;-71
2022/03/09 11:06:47;;;;;;;14.07;12.77;;;;;;;13.83;31.35;99360.59;5018135;27;105194;-72
2022/03/09 11:09:18;;;;;;;15.10;13.60;;;;;;;14.03;30.84;99352.91;5016125;27;103475;-67
2022/03/09 11:11:49;;;;;;;15.73;14.13;;;;;;;11.36;32.41;99356.00;5011503;28;104327;-66
2022/03/09 11:14:19;;;;;;;14.85;13.38;;;;;;;11.88;33.92;99361.34;5012470;28;102680;-66
2022/03/09 11:16:48;;;;;;;14.10;12.80;;;;;;;12.11;33.35;99360.66;5015483;27;102712;-66
2022/03/09 11:19:19;;;;;;;14.45;13.05;;;;;;;12.50;32.00;99357.03;5013758;28;103778;-67
2022/03/09 11:21:48;;;;;;;14.55;13.18;;;;;;;12.35;32.02;99351.97;5016780;28;103180;-66
2022/03/09 11:24:20;;;;;;;14.10;12.80;;;;;;;13.75;31.31;99341.69;5008895;28;102776;-66
2022/03/09 11:26:50;;;;;;;13.20;12.10;;;;;;;14.46;30.53;99333.56;5008621;27;103835;-71
2022/03/09 11:29:30;;;;;;;14.02;12.63;;;;;;;14.05;30.38;99341.19;4997611;28;103012;-71